To NAV CANADA Home Page Login to a new session Search on AWWS site Feedback and Comments Disclaimer Vers la page française équivalente Tips FAQ What's new on the site To the Forecasts and Observations / NOTAM section To "File a Flight Plan" website Publications and other links Update of the User's profile FIC Telephone Numbers My Weather Data Folder Route Weather Data Regional Weather Data Local Weather Data To the Forecasts and Observations / NOTAM section
Request Generated 08/02/2015 at 14:20:14 UTC . Weather information available at that time is displayed.

METAR/TAF

BRANDON/BRANDON MUNICIPALITY/MB    

METAR CYBR 021400Z 33007KT 15SM FEW240 18/13 A2987 RMK CI1 SLP119
DENSITY ALT 2000FT=
METAR CYBR 021300Z 32006KT 15SM SKC 15/13 A2986 RMK SLP115 DENSITY
ALT 1700FT=
METAR CYBR 021200Z 34007KT 15SM FEW090 13/12 A2984 RMK AC1 SLP106
DENSITY ALT 1500FT=

TAF CYBR 021138Z 0212/0224 33006KT P6SM FEW080
BECMG 0213/0215 31012G23KT
FM021700 32018G28KT P6SM SKC
RMK NXT FCST BY 021800Z=
Your time UTC time
Weather data provided by Environment Canada and NAV CANADA